Pagrindinis puslapis
METAR-TAF:

METAR-TAF

Oro uostai :

Ušakas, Turkija

platuma: 38-40N, ilguma: 029-25E, Aukštis: 919 m

Dabartinis oras

Ataskaita buvo paskelbta 5 valandos ir 56 minutes, ne 14:50 UTC
Vėjas 8 kt iš Vakarų/Šiaurės Vakarų
Temperatūra 10°C
Drėgmė 66%
Slėgis 1021 hPa
Matomumas 10 km arba daugiau
Išsisklaidę debesys ne aukštis 4000 ft
Su prošvaistėmis ne aukštis 10000 ft

METAR: LTBO 151450Z 30008KT 9999 SCT040 BKN100 10/04 Q1021

Laikas: 23:46 (20:46 UTC)

Prognozė

Ataskaita buvo paskelbta 4 valandos ir 6 minutes, ne 16:40 UTC
Prognozė galioja nuo 15 metu 18 UTC su 16 metu 03 UTC
Vėjas 2 kt nuo kintamojo kryptimis
Matomumas 10 km arba daugiau
Išsisklaidę debesys ne aukštis 3500 ft
Tapsmas
nuo 15 metu 21 UTC su 15 metu 24 UTC
Matomumas: 3000 m
rūkana

TAF: LTBO 151640Z 1518/1603 VRB02KT 9999 SCT035 BECMG 1521/1524 3000 BR

Orai ataskaitas ir orų prognozės (METAR, TAF).

turimą stotys yra geltonos ir raudonos taškus žemėlapyje.

Perkelti pele per norėdami pamatyti stoties vardą.

Tada spustelėkite, norėdami matyti oro stebėjimo ir prognozės.

Norėdami pakeisti žemėlapį: spustelėkite ant žalios mygtukų su juodo kryžiaus žemyn,; žalią mygtuką su brūkšneliu, jei norite nutolinti; arba žalių rodyklių gretimoms žemėlapius.


METAR-TAF: